sensor_id;sensor_type;location;lat;lon;timestamp;P1;durP1;ratioP1;P2;durP2;ratioP2
71383;SDS011;67558;52.166;5.004;2023-02-22T00:01:03;28.25;;;10.27;;
71383;SDS011;67558;52.166;5.004;2023-02-22T00:03:32;32.88;;;13.35;;
71383;SDS011;67558;52.166;5.004;2023-02-22T00:06:00;25.98;;;10.85;;
71383;SDS011;67558;52.166;5.004;2023-02-22T00:08:29;31.73;;;11.43;;
71383;SDS011;67558;52.166;5.004;2023-02-22T00:10:57;30.48;;;11.40;;
71383;SDS011;67558;52.166;5.004;2023-02-22T00:13:27;34.72;;;10.40;;
71383;SDS011;67558;52.166;5.004;2023-02-22T00:15:53;34.38;;;11.02;;
71383;SDS011;67558;52.166;5.004;2023-02-22T00:18:19;23.52;;;9.43;;
71383;SDS011;67558;52.166;5.004;2023-02-22T00:20:44;31.38;;;11.98;;
71383;SDS011;67558;52.166;5.004;2023-02-22T00:23:14;30.10;;;10.57;;
71383;SDS011;67558;52.166;5.004;2023-02-22T00:25:42;26.00;;;9.98;;
71383;SDS011;67558;52.166;5.004;2023-02-22T00:28:09;33.10;;;10.95;;
71383;SDS011;67558;52.166;5.004;2023-02-22T00:30:35;32.40;;;10.90;;
71383;SDS011;67558;52.166;5.004;2023-02-22T00:33:00;25.33;;;10.43;;
71383;SDS011;67558;52.166;5.004;2023-02-22T00:35:27;29.80;;;10.73;;
71383;SDS011;67558;52.166;5.004;2023-02-22T00:37:55;29.90;;;11.07;;
71383;SDS011;67558;52.166;5.004;2023-02-22T00:40:23;25.30;;;9.70;;
71383;SDS011;67558;52.166;5.004;2023-02-22T00:42:51;27.65;;;9.93;;
71383;SDS011;67558;52.166;5.004;2023-02-22T00:45:19;31.40;;;13.30;;
71383;SDS011;67558;52.166;5.004;2023-02-22T00:47:46;29.85;;;10.77;;
71383;SDS011;67558;52.166;5.004;2023-02-22T00:50:12;27.02;;;11.27;;
71383;SDS011;67558;52.166;5.004;2023-02-22T00:52:38;9.93;;;5.90;;
71383;SDS011;67558;52.166;5.004;2023-02-22T00:55:05;27.98;;;9.75;;
71383;SDS011;67558;52.166;5.004;2023-02-22T00:57:32;32.30;;;12.85;;
71383;SDS011;67558;52.166;5.004;2023-02-22T01:00:01;30.83;;;11.57;;
71383;SDS011;67558;52.166;5.004;2023-02-22T01:02:36;31.35;;;11.88;;
71383;SDS011;67558;52.166;5.004;2023-02-22T01:05:03;27.88;;;10.77;;
71383;SDS011;67558;52.166;5.004;2023-02-22T01:07:29;29.92;;;10.02;;
71383;SDS011;67558;52.166;5.004;2023-02-22T01:09:54;26.60;;;11.52;;
71383;SDS011;67558;52.166;5.004;2023-02-22T01:12:20;27.17;;;10.95;;
71383;SDS011;67558;52.166;5.004;2023-02-22T01:14:46;22.40;;;9.40;;
71383;SDS011;67558;52.166;5.004;2023-02-22T01:17:12;19.73;;;8.20;;
71383;SDS011;67558;52.166;5.004;2023-02-22T01:19:37;29.08;;;11.02;;
71383;SDS011;67558;52.166;5.004;2023-02-22T01:22:06;31.10;;;10.07;;
71383;SDS011;67558;52.166;5.004;2023-02-22T01:24:32;31.45;;;11.50;;
71383;SDS011;67558;52.166;5.004;2023-02-22T01:26:57;24.20;;;9.60;;
71383;SDS011;67558;52.166;5.004;2023-02-22T01:29:22;29.83;;;11.20;;
71383;SDS011;67558;52.166;5.004;2023-02-22T01:31:52;28.92;;;11.13;;
71383;SDS011;67558;52.166;5.004;2023-02-22T01:34:19;26.15;;;9.25;;
71383;SDS011;67558;52.166;5.004;2023-02-22T01:36:45;30.48;;;10.23;;
71383;SDS011;67558;52.166;5.004;2023-02-22T01:39:10;22.42;;;9.38;;
71383;SDS011;67558;52.166;5.004;2023-02-22T01:41:36;30.42;;;10.30;;
71383;SDS011;67558;52.166;5.004;2023-02-22T01:44:19;28.98;;;10.85;;
71383;SDS011;67558;52.166;5.004;2023-02-22T01:46:54;26.95;;;8.63;;
71383;SDS011;67558;52.166;5.004;2023-02-22T01:49:22;19.63;;;7.55;;
71383;SDS011;67558;52.166;5.004;2023-02-22T01:51:50;25.48;;;9.88;;
71383;SDS011;67558;52.166;5.004;2023-02-22T01:54:27;29.88;;;10.38;;
71383;SDS011;67558;52.166;5.004;2023-02-22T01:59:46;29.48;;;9.68;;
71383;SDS011;67558;52.166;5.004;2023-02-22T02:02:14;23.27;;;9.57;;
71383;SDS011;67558;52.166;5.004;2023-02-22T02:04:40;23.35;;;10.23;;
71383;SDS011;67558;52.166;5.004;2023-02-22T02:07:07;26.30;;;11.15;;
71383;SDS011;67558;52.166;5.004;2023-02-22T02:09:37;27.17;;;11.68;;
71383;SDS011;67558;52.166;5.004;2023-02-22T02:12:04;23.90;;;9.35;;
71383;SDS011;67558;52.166;5.004;2023-02-22T02:14:33;26.20;;;9.93;;
71383;SDS011;67558;52.166;5.004;2023-02-22T02:17:04;25.77;;;9.68;;
71383;SDS011;67558;52.166;5.004;2023-02-22T02:25:07;25.55;;;9.77;;
71383;SDS011;67558;52.166;5.004;2023-02-22T02:30:15;26.00;;;10.30;;
71383;SDS011;67558;52.166;5.004;2023-02-22T02:32:55;21.65;;;7.55;;
71383;SDS011;67558;52.166;5.004;2023-02-22T02:35:35;29.35;;;10.82;;
71383;SDS011;67558;52.166;5.004;2023-02-22T02:38:11;28.42;;;11.02;;
71383;SDS011;67558;52.166;5.004;2023-02-22T02:41:09;29.42;;;10.75;;
71383;SDS011;67558;52.166;5.004;2023-02-22T02:46:33;27.02;;;9.57;;
71383;SDS011;67558;52.166;5.004;2023-02-22T02:49:09;24.75;;;8.57;;
71383;SDS011;67558;52.166;5.004;2023-02-22T02:51:39;27.08;;;9.85;;
71383;SDS011;67558;52.166;5.004;2023-02-22T02:54:08;25.88;;;10.68;;
71383;SDS011;67558;52.166;5.004;2023-02-22T02:56:35;21.17;;;7.80;;
71383;SDS011;67558;52.166;5.004;2023-02-22T02:59:00;26.38;;;9.98;;
71383;SDS011;67558;52.166;5.004;2023-02-22T03:01:31;27.13;;;9.40;;
71383;SDS011;67558;52.166;5.004;2023-02-22T03:07:13;27.15;;;10.00;;
71383;SDS011;67558;52.166;5.004;2023-02-22T03:15:18;23.85;;;9.82;;
71383;SDS011;67558;52.166;5.004;2023-02-22T03:18:03;26.85;;;9.85;;
71383;SDS011;67558;52.166;5.004;2023-02-22T03:20:42;33.80;;;11.23;;
71383;SDS011;67558;52.166;5.004;2023-02-22T03:25:50;26.40;;;10.30;;
71383;SDS011;67558;52.166;5.004;2023-02-22T03:28:20;27.98;;;12.63;;
71383;SDS011;67558;52.166;5.004;2023-02-22T03:31:01;29.27;;;11.05;;
71383;SDS011;67558;52.166;5.004;2023-02-22T03:33:36;24.58;;;9.05;;
71383;SDS011;67558;52.166;5.004;2023-02-22T03:36:08;24.55;;;9.52;;
71383;SDS011;67558;52.166;5.004;2023-02-22T03:38:38;25.85;;;9.98;;
71383;SDS011;67558;52.166;5.004;2023-02-22T03:41:07;30.67;;;10.65;;
71383;SDS011;67558;52.166;5.004;2023-02-22T03:43:41;24.80;;;8.63;;
71383;SDS011;67558;52.166;5.004;2023-02-22T03:46:10;28.17;;;11.10;;
71383;SDS011;67558;52.166;5.004;2023-02-22T03:51:18;18.70;;;7.35;;
71383;SDS011;67558;52.166;5.004;2023-02-22T03:53:45;21.77;;;9.90;;
71383;SDS011;67558;52.166;5.004;2023-02-22T03:56:13;25.23;;;9.90;;
71383;SDS011;67558;52.166;5.004;2023-02-22T03:58:46;26.10;;;9.45;;
71383;SDS011;67558;52.166;5.004;2023-02-22T04:01:13;22.35;;;8.30;;
71383;SDS011;67558;52.166;5.004;2023-02-22T04:03:39;30.45;;;10.32;;
71383;SDS011;67558;52.166;5.004;2023-02-22T04:06:06;30.05;;;10.48;;
71383;SDS011;67558;52.166;5.004;2023-02-22T04:08:31;30.67;;;11.20;;
71383;SDS011;67558;52.166;5.004;2023-02-22T04:10:57;27.45;;;10.77;;
71383;SDS011;67558;52.166;5.004;2023-02-22T04:13:22;28.88;;;11.40;;
71383;SDS011;67558;52.166;5.004;2023-02-22T04:15:48;24.88;;;10.23;;
71383;SDS011;67558;52.166;5.004;2023-02-22T04:18:13;29.40;;;10.82;;
71383;SDS011;67558;52.166;5.004;2023-02-22T04:20:39;30.20;;;10.55;;
71383;SDS011;67558;52.166;5.004;2023-02-22T04:23:04;20.38;;;8.90;;
71383;SDS011;67558;52.166;5.004;2023-02-22T04:25:30;27.63;;;11.13;;
71383;SDS011;67558;52.166;5.004;2023-02-22T04:27:55;31.05;;;11.45;;
71383;SDS011;67558;52.166;5.004;2023-02-22T04:30:21;26.13;;;10.18;;
71383;SDS011;67558;52.166;5.004;2023-02-22T04:32:47;29.02;;;9.70;;
71383;SDS011;67558;52.166;5.004;2023-02-22T04:35:12;34.15;;;10.45;;
71383;SDS011;67558;52.166;5.004;2023-02-22T04:37:38;31.15;;;10.52;;
71383;SDS011;67558;52.166;5.004;2023-02-22T04:40:03;32.67;;;11.50;;
71383;SDS011;67558;52.166;5.004;2023-02-22T04:42:36;29.67;;;11.90;;
71383;SDS011;67558;52.166;5.004;2023-02-22T04:45:02;28.55;;;10.98;;
71383;SDS011;67558;52.166;5.004;2023-02-22T04:47:29;34.42;;;11.20;;
71383;SDS011;67558;52.166;5.004;2023-02-22T04:49:55;30.98;;;11.75;;
71383;SDS011;67558;52.166;5.004;2023-02-22T04:52:20;32.25;;;10.32;;
71383;SDS011;67558;52.166;5.004;2023-02-22T04:54:46;32.15;;;10.95;;
71383;SDS011;67558;52.166;5.004;2023-02-22T04:57:11;25.98;;;10.48;;
71383;SDS011;67558;52.166;5.004;2023-02-22T04:59:36;28.80;;;10.02;;
71383;SDS011;67558;52.166;5.004;2023-02-22T05:02:02;30.80;;;11.05;;
71383;SDS011;67558;52.166;5.004;2023-02-22T05:04:27;27.45;;;10.48;;
71383;SDS011;67558;52.166;5.004;2023-02-22T05:06:53;32.13;;;10.80;;
71383;SDS011;67558;52.166;5.004;2023-02-22T05:09:19;27.95;;;10.73;;
71383;SDS011;67558;52.166;5.004;2023-02-22T05:11:44;29.20;;;10.02;;
71383;SDS011;67558;52.166;5.004;2023-02-22T05:14:09;21.95;;;9.10;;
71383;SDS011;67558;52.166;5.004;2023-02-22T05:16:35;28.23;;;10.75;;
71383;SDS011;67558;52.166;5.004;2023-02-22T05:19:01;25.98;;;9.88;;
71383;SDS011;67558;52.166;5.004;2023-02-22T05:21:26;29.00;;;9.95;;
71383;SDS011;67558;52.166;5.004;2023-02-22T05:23:52;25.60;;;9.18;;
71383;SDS011;67558;52.166;5.004;2023-02-22T05:26:17;23.55;;;7.65;;
71383;SDS011;67558;52.166;5.004;2023-02-22T05:28:43;32.00;;;11.15;;
71383;SDS011;67558;52.166;5.004;2023-02-22T05:31:08;30.83;;;11.25;;
71383;SDS011;67558;52.166;5.004;2023-02-22T05:33:34;27.15;;;10.70;;
71383;SDS011;67558;52.166;5.004;2023-02-22T05:35:59;32.28;;;10.60;;
71383;SDS011;67558;52.166;5.004;2023-02-22T05:38:25;36.42;;;11.07;;
71383;SDS011;67558;52.166;5.004;2023-02-22T05:40:50;25.13;;;8.43;;
71383;SDS011;67558;52.166;5.004;2023-02-22T05:43:15;28.60;;;11.32;;
71383;SDS011;67558;52.166;5.004;2023-02-22T05:45:41;26.88;;;9.30;;
71383;SDS011;67558;52.166;5.004;2023-02-22T05:48:06;28.00;;;10.50;;
71383;SDS011;67558;52.166;5.004;2023-02-22T05:50:32;24.40;;;8.98;;
71383;SDS011;67558;52.166;5.004;2023-02-22T05:52:58;29.90;;;9.98;;
71383;SDS011;67558;52.166;5.004;2023-02-22T05:55:24;27.58;;;9.85;;
71383;SDS011;67558;52.166;5.004;2023-02-22T05:57:50;30.92;;;10.63;;
71383;SDS011;67558;52.166;5.004;2023-02-22T06:00:17;24.30;;;8.88;;
71383;SDS011;67558;52.166;5.004;2023-02-22T06:02:56;28.98;;;10.88;;
71383;SDS011;67558;52.166;5.004;2023-02-22T06:05:27;30.23;;;9.98;;
71383;SDS011;67558;52.166;5.004;2023-02-22T06:07:53;18.80;;;7.95;;
71383;SDS011;67558;52.166;5.004;2023-02-22T06:10:19;29.52;;;9.00;;
71383;SDS011;67558;52.166;5.004;2023-02-22T06:12:46;22.45;;;8.85;;
71383;SDS011;67558;52.166;5.004;2023-02-22T06:15:12;34.25;;;11.02;;
71383;SDS011;67558;52.166;5.004;2023-02-22T06:17:39;26.63;;;10.07;;
71383;SDS011;67558;52.166;5.004;2023-02-22T06:20:06;25.27;;;9.73;;
71383;SDS011;67558;52.166;5.004;2023-02-22T06:22:33;25.90;;;9.05;;
71383;SDS011;67558;52.166;5.004;2023-02-22T06:24:58;29.45;;;9.93;;
71383;SDS011;67558;52.166;5.004;2023-02-22T06:27:23;27.50;;;8.05;;
71383;SDS011;67558;52.166;5.004;2023-02-22T06:29:48;25.38;;;8.80;;
71383;SDS011;67558;52.166;5.004;2023-02-22T06:32:14;25.45;;;8.00;;
71383;SDS011;67558;52.166;5.004;2023-02-22T06:34:39;18.83;;;7.72;;
71383;SDS011;67558;52.166;5.004;2023-02-22T06:37:05;26.10;;;10.13;;
71383;SDS011;67558;52.166;5.004;2023-02-22T06:39:31;29.38;;;10.18;;
71383;SDS011;67558;52.166;5.004;2023-02-22T06:41:57;27.92;;;9.52;;
71383;SDS011;67558;52.166;5.004;2023-02-22T06:44:23;25.55;;;8.95;;
71383;SDS011;67558;52.166;5.004;2023-02-22T06:46:49;25.55;;;10.32;;
71383;SDS011;67558;52.166;5.004;2023-02-22T06:49:18;32.42;;;12.32;;
71383;SDS011;67558;52.166;5.004;2023-02-22T06:51:44;16.90;;;5.47;;
71383;SDS011;67558;52.166;5.004;2023-02-22T06:54:10;32.88;;;10.60;;
71383;SDS011;67558;52.166;5.004;2023-02-22T06:56:36;26.92;;;9.23;;
71383;SDS011;67558;52.166;5.004;2023-02-22T06:59:01;35.20;;;9.85;;
71383;SDS011;67558;52.166;5.004;2023-02-22T07:01:27;26.52;;;9.68;;
71383;SDS011;67558;52.166;5.004;2023-02-22T07:03:52;36.90;;;11.50;;
71383;SDS011;67558;52.166;5.004;2023-02-22T07:06:18;30.88;;;9.23;;
71383;SDS011;67558;52.166;5.004;2023-02-22T07:08:43;31.80;;;10.27;;
71383;SDS011;67558;52.166;5.004;2023-02-22T07:11:08;8.63;;;4.45;;
71383;SDS011;67558;52.166;5.004;2023-02-22T07:13:34;33.03;;;10.80;;
71383;SDS011;67558;52.166;5.004;2023-02-22T07:15:59;25.38;;;9.13;;
71383;SDS011;67558;52.166;5.004;2023-02-22T07:18:25;22.52;;;7.43;;
71383;SDS011;67558;52.166;5.004;2023-02-22T07:20:50;26.27;;;9.27;;
71383;SDS011;67558;52.166;5.004;2023-02-22T07:23:15;27.92;;;9.30;;
71383;SDS011;67558;52.166;5.004;2023-02-22T07:25:41;21.48;;;8.60;;
71383;SDS011;67558;52.166;5.004;2023-02-22T07:28:07;28.25;;;10.10;;
71383;SDS011;67558;52.166;5.004;2023-02-22T07:30:35;34.85;;;11.85;;
71383;SDS011;67558;52.166;5.004;2023-02-22T07:33:01;33.03;;;9.95;;
71383;SDS011;67558;52.166;5.004;2023-02-22T07:35:41;28.95;;;9.98;;
71383;SDS011;67558;52.166;5.004;2023-02-22T07:38:08;31.35;;;10.05;;
71383;SDS011;67558;52.166;5.004;2023-02-22T07:40:34;29.48;;;10.30;;
71383;SDS011;67558;52.166;5.004;2023-02-22T07:45:41;22.10;;;9.05;;
71383;SDS011;67558;52.166;5.004;2023-02-22T07:48:07;25.70;;;9.38;;
71383;SDS011;67558;52.166;5.004;2023-02-22T07:50:33;18.95;;;9.13;;
71383;SDS011;67558;52.166;5.004;2023-02-22T07:53:05;21.63;;;9.23;;
71383;SDS011;67558;52.166;5.004;2023-02-22T07:55:32;24.80;;;9.80;;
71383;SDS011;67558;52.166;5.004;2023-02-22T07:57:59;25.45;;;8.70;;
71383;SDS011;67558;52.166;5.004;2023-02-22T08:00:27;28.05;;;10.35;;
71383;SDS011;67558;52.166;5.004;2023-02-22T08:02:54;29.27;;;9.65;;
71383;SDS011;67558;52.166;5.004;2023-02-22T08:05:21;28.52;;;8.77;;
71383;SDS011;67558;52.166;5.004;2023-02-22T08:07:49;24.40;;;8.00;;
71383;SDS011;67558;52.166;5.004;2023-02-22T08:10:15;30.20;;;9.38;;
71383;SDS011;67558;52.166;5.004;2023-02-22T08:12:41;21.90;;;9.55;;
71383;SDS011;67558;52.166;5.004;2023-02-22T08:15:08;25.42;;;9.85;;
71383;SDS011;67558;52.166;5.004;2023-02-22T08:17:38;24.70;;;9.43;;
71383;SDS011;67558;52.166;5.004;2023-02-22T08:20:04;19.40;;;8.48;;
71383;SDS011;67558;52.166;5.004;2023-02-22T08:22:30;22.95;;;8.55;;
71383;SDS011;67558;52.166;5.004;2023-02-22T08:24:55;25.40;;;9.25;;
71383;SDS011;67558;52.166;5.004;2023-02-22T08:27:23;25.58;;;8.77;;
71383;SDS011;67558;52.166;5.004;2023-02-22T08:29:50;25.55;;;9.88;;
71383;SDS011;67558;52.166;5.004;2023-02-22T08:32:16;19.98;;;8.02;;
71383;SDS011;67558;52.166;5.004;2023-02-22T08:34:42;23.77;;;9.98;;
71383;SDS011;67558;52.166;5.004;2023-02-22T08:37:07;18.88;;;7.50;;
71383;SDS011;67558;52.166;5.004;2023-02-22T08:39:33;23.73;;;8.52;;
71383;SDS011;67558;52.166;5.004;2023-02-22T08:41:58;16.10;;;8.15;;
71383;SDS011;67558;52.166;5.004;2023-02-22T08:44:23;19.92;;;8.05;;
71383;SDS011;67558;52.166;5.004;2023-02-22T08:46:49;21.42;;;8.93;;
71383;SDS011;67558;52.166;5.004;2023-02-22T08:49:15;11.02;;;4.95;;
71383;SDS011;67558;52.166;5.004;2023-02-22T08:51:41;20.30;;;8.45;;
71383;SDS011;67558;52.166;5.004;2023-02-22T08:54:06;15.80;;;7.38;;
71383;SDS011;67558;52.166;5.004;2023-02-22T08:56:31;21.33;;;7.43;;
71383;SDS011;67558;52.166;5.004;2023-02-22T08:58:57;23.30;;;8.80;;
71383;SDS011;67558;52.166;5.004;2023-02-22T09:01:22;21.27;;;8.68;;
71383;SDS011;67558;52.166;5.004;2023-02-22T09:03:53;18.60;;;7.95;;
71383;SDS011;67558;52.166;5.004;2023-02-22T09:06:20;20.13;;;8.32;;
71383;SDS011;67558;52.166;5.004;2023-02-22T09:08:46;20.48;;;9.00;;
71383;SDS011;67558;52.166;5.004;2023-02-22T09:11:11;20.75;;;8.73;;
71383;SDS011;67558;52.166;5.004;2023-02-22T09:13:37;21.02;;;8.85;;
71383;SDS011;67558;52.166;5.004;2023-02-22T09:16:02;23.63;;;9.30;;
71383;SDS011;67558;52.166;5.004;2023-02-22T09:18:27;18.77;;;8.13;;
71383;SDS011;67558;52.166;5.004;2023-02-22T09:20:53;20.75;;;9.02;;
71383;SDS011;67558;52.166;5.004;2023-02-22T09:23:19;13.68;;;6.55;;
71383;SDS011;67558;52.166;5.004;2023-02-22T09:25:45;19.88;;;8.77;;
71383;SDS011;67558;52.166;5.004;2023-02-22T09:28:12;13.90;;;6.80;;
71383;SDS011;67558;52.166;5.004;2023-02-22T09:30:38;20.35;;;8.25;;
71383;SDS011;67558;52.166;5.004;2023-02-22T09:33:05;16.90;;;7.80;;
71383;SDS011;67558;52.166;5.004;2023-02-22T09:35:36;18.50;;;8.80;;
71383;SDS011;67558;52.166;5.004;2023-02-22T09:38:06;19.40;;;8.95;;
71383;SDS011;67558;52.166;5.004;2023-02-22T09:40:33;21.52;;;8.85;;
71383;SDS011;67558;52.166;5.004;2023-02-22T09:48:30;24.70;;;9.35;;
71383;SDS011;67558;52.166;5.004;2023-02-22T09:51:00;21.65;;;9.48;;
71383;SDS011;67558;52.166;5.004;2023-02-22T09:53:37;20.25;;;8.02;;
71383;SDS011;67558;52.166;5.004;2023-02-22T09:56:08;24.95;;;8.88;;
71383;SDS011;67558;52.166;5.004;2023-02-22T09:58:39;22.08;;;9.43;;
71383;SDS011;67558;52.166;5.004;2023-02-22T10:06:27;22.83;;;9.80;;
71383;SDS011;67558;52.166;5.004;2023-02-22T10:08:54;22.23;;;10.50;;
71383;SDS011;67558;52.166;5.004;2023-02-22T10:22:42;23.67;;;8.98;;
71383;SDS011;67558;52.166;5.004;2023-02-22T10:25:21;17.45;;;10.23;;
71383;SDS011;67558;52.166;5.004;2023-02-22T10:28:09;27.77;;;10.18;;
71383;SDS011;67558;52.166;5.004;2023-02-22T10:30:53;20.13;;;9.43;;
71383;SDS011;67558;52.166;5.004;2023-02-22T10:33:23;20.60;;;9.05;;
71383;SDS011;67558;52.166;5.004;2023-02-22T10:35:54;21.70;;;10.07;;
71383;SDS011;67558;52.166;5.004;2023-02-22T10:38:21;18.90;;;9.85;;
71383;SDS011;67558;52.166;5.004;2023-02-22T10:41:02;24.55;;;9.80;;
71383;SDS011;67558;52.166;5.004;2023-02-22T10:43:44;29.77;;;10.80;;
71383;SDS011;67558;52.166;5.004;2023-02-22T10:46:11;20.55;;;9.30;;
71383;SDS011;67558;52.166;5.004;2023-02-22T10:48:41;19.77;;;8.85;;
71383;SDS011;67558;52.166;5.004;2023-02-22T10:51:11;23.77;;;9.18;;
71383;SDS011;67558;52.166;5.004;2023-02-22T10:53:37;26.73;;;9.45;;
71383;SDS011;67558;52.166;5.004;2023-02-22T10:58:57;22.95;;;9.98;;
71383;SDS011;67558;52.166;5.004;2023-02-22T11:06:25;21.35;;;10.13;;
71383;SDS011;67558;52.166;5.004;2023-02-22T11:08:54;22.88;;;9.57;;
71383;SDS011;67558;52.166;5.004;2023-02-22T11:11:39;25.60;;;9.82;;
71383;SDS011;67558;52.166;5.004;2023-02-22T11:14:10;22.17;;;9.85;;
71383;SDS011;67558;52.166;5.004;2023-02-22T11:16:41;22.83;;;9.45;;
71383;SDS011;67558;52.166;5.004;2023-02-22T11:19:21;21.42;;;9.65;;
71383;SDS011;67558;52.166;5.004;2023-02-22T11:21:54;23.50;;;10.07;;
71383;SDS011;67558;52.166;5.004;2023-02-22T11:24:33;25.40;;;10.57;;
71383;SDS011;67558;52.166;5.004;2023-02-22T11:27:08;23.75;;;9.98;;
71383;SDS011;67558;52.166;5.004;2023-02-22T11:29:48;19.48;;;8.50;;
71383;SDS011;67558;52.166;5.004;2023-02-22T11:32:15;24.35;;;11.05;;
71383;SDS011;67558;52.166;5.004;2023-02-22T11:34:45;14.13;;;5.78;;
71383;SDS011;67558;52.166;5.004;2023-02-22T11:37:31;31.83;;;10.77;;
71383;SDS011;67558;52.166;5.004;2023-02-22T11:42:47;23.17;;;9.98;;
71383;SDS011;67558;52.166;5.004;2023-02-22T11:45:14;22.00;;;10.30;;
71383;SDS011;67558;52.166;5.004;2023-02-22T11:47:51;22.52;;;9.52;;
71383;SDS011;67558;52.166;5.004;2023-02-22T11:50:22;23.77;;;10.00;;
71383;SDS011;67558;52.166;5.004;2023-02-22T11:52:48;23.92;;;9.82;;
71383;SDS011;67558;52.166;5.004;2023-02-22T12:16:45;25.48;;;10.75;;
71383;SDS011;67558;52.166;5.004;2023-02-22T12:21:57;21.00;;;9.68;;
71383;SDS011;67558;52.166;5.004;2023-02-22T12:24:29;24.33;;;10.00;;
71383;SDS011;67558;52.166;5.004;2023-02-22T12:27:01;21.42;;;9.10;;
71383;SDS011;67558;52.166;5.004;2023-02-22T12:29:38;21.92;;;9.60;;
71383;SDS011;67558;52.166;5.004;2023-02-22T12:32:13;19.95;;;10.25;;
71383;SDS011;67558;52.166;5.004;2023-02-22T12:37:35;21.83;;;10.50;;
71383;SDS011;67558;52.166;5.004;2023-02-22T12:40:30;17.98;;;9.70;;
71383;SDS011;67558;52.166;5.004;2023-02-22T12:50:51;19.45;;;9.52;;
71383;SDS011;67558;52.166;5.004;2023-02-22T12:55:50;17.77;;;8.52;;
71383;SDS011;67558;52.166;5.004;2023-02-22T12:58:21;19.38;;;9.52;;
71383;SDS011;67558;52.166;5.004;2023-02-22T13:03:53;18.23;;;9.07;;
71383;SDS011;67558;52.166;5.004;2023-02-22T13:08:52;24.77;;;10.48;;
71383;SDS011;67558;52.166;5.004;2023-02-22T13:14:29;19.88;;;10.52;;
71383;SDS011;67558;52.166;5.004;2023-02-22T13:25:41;23.55;;;10.73;;
71383;SDS011;67558;52.166;5.004;2023-02-22T13:33:17;23.00;;;11.43;;
71383;SDS011;67558;52.166;5.004;2023-02-22T13:36:15;19.25;;;8.85;;
71383;SDS011;67558;52.166;5.004;2023-02-22T13:44:15;21.85;;;9.82;;
71383;SDS011;67558;52.166;5.004;2023-02-22T13:49:31;20.73;;;10.40;;
71383;SDS011;67558;52.166;5.004;2023-02-22T13:52:13;23.80;;;10.25;;
71383;SDS011;67558;52.166;5.004;2023-02-22T13:54:47;20.67;;;9.88;;
71383;SDS011;67558;52.166;5.004;2023-02-22T13:59:48;21.00;;;10.15;;
71383;SDS011;67558;52.166;5.004;2023-02-22T14:03:27;23.65;;;10.07;;
71383;SDS011;67558;52.166;5.004;2023-02-22T14:05:46;16.83;;;9.25;;
71383;SDS011;67558;52.166;5.004;2023-02-22T14:13:08;20.83;;;9.57;;
71383;SDS011;67558;52.166;5.004;2023-02-22T14:15:33;21.27;;;12.25;;
71383;SDS011;67558;52.166;5.004;2023-02-22T14:18:12;19.90;;;9.80;;
71383;SDS011;67558;52.166;5.004;2023-02-22T14:20:40;18.85;;;10.60;;
71383;SDS011;67558;52.166;5.004;2023-02-22T14:25:51;18.08;;;9.88;;
71383;SDS011;67558;52.166;5.004;2023-02-22T14:28:34;19.27;;;8.82;;
71383;SDS011;67558;52.166;5.004;2023-02-22T14:31:08;18.88;;;9.20;;
71383;SDS011;67558;52.166;5.004;2023-02-22T14:39:33;17.75;;;9.48;;
71383;SDS011;67558;52.166;5.004;2023-02-22T14:42:22;17.13;;;8.70;;
71383;SDS011;67558;52.166;5.004;2023-02-22T14:44:59;21.00;;;10.25;;
71383;SDS011;67558;52.166;5.004;2023-02-22T14:47:37;18.50;;;10.18;;
71383;SDS011;67558;52.166;5.004;2023-02-22T14:50:25;18.88;;;9.25;;
71383;SDS011;67558;52.166;5.004;2023-02-22T14:53:04;18.35;;;9.80;;
71383;SDS011;67558;52.166;5.004;2023-02-22T14:55:42;18.35;;;11.20;;
71383;SDS011;67558;52.166;5.004;2023-02-22T14:58:20;17.70;;;10.35;;
71383;SDS011;67558;52.166;5.004;2023-02-22T15:00:50;17.67;;;9.70;;
71383;SDS011;67558;52.166;5.004;2023-02-22T15:05:46;18.15;;;10.10;;
71383;SDS011;67558;52.166;5.004;2023-02-22T15:08:14;22.70;;;11.02;;
71383;SDS011;67558;52.166;5.004;2023-02-22T15:10:42;17.02;;;10.75;;
71383;SDS011;67558;52.166;5.004;2023-02-22T15:13:16;18.10;;;12.10;;
71383;SDS011;67558;52.166;5.004;2023-02-22T15:15:47;18.08;;;10.35;;
71383;SDS011;67558;52.166;5.004;2023-02-22T15:21:15;21.95;;;11.52;;
71383;SDS011;67558;52.166;5.004;2023-02-22T15:23:55;17.13;;;9.45;;
71383;SDS011;67558;52.166;5.004;2023-02-22T15:26:26;16.45;;;9.32;;
71383;SDS011;67558;52.166;5.004;2023-02-22T15:28:54;16.48;;;10.05;;
71383;SDS011;67558;52.166;5.004;2023-02-22T15:33:50;18.98;;;10.55;;
71383;SDS011;67558;52.166;5.004;2023-02-22T15:36:17;22.30;;;10.52;;
71383;SDS011;67558;52.166;5.004;2023-02-22T15:38:51;19.77;;;10.30;;
71383;SDS011;67558;52.166;5.004;2023-02-22T15:41:27;18.50;;;11.18;;
71383;SDS011;67558;52.166;5.004;2023-02-22T15:44:00;20.75;;;11.60;;
71383;SDS011;67558;52.166;5.004;2023-02-22T15:46:27;19.88;;;11.70;;
71383;SDS011;67558;52.166;5.004;2023-02-22T15:51:37;19.70;;;11.55;;
71383;SDS011;67558;52.166;5.004;2023-02-22T15:54:06;21.58;;;11.32;;
71383;SDS011;67558;52.166;5.004;2023-02-22T15:56:39;21.38;;;10.70;;
71383;SDS011;67558;52.166;5.004;2023-02-22T15:59:12;23.10;;;11.50;;
71383;SDS011;67558;52.166;5.004;2023-02-22T16:01:42;21.58;;;12.15;;
71383;SDS011;67558;52.166;5.004;2023-02-22T16:04:20;23.45;;;10.80;;
71383;SDS011;67558;52.166;5.004;2023-02-22T16:06:47;24.25;;;11.95;;
71383;SDS011;67558;52.166;5.004;2023-02-22T16:09:19;22.65;;;11.32;;
71383;SDS011;67558;52.166;5.004;2023-02-22T16:11:50;22.13;;;11.52;;
71383;SDS011;67558;52.166;5.004;2023-02-22T16:19:48;21.73;;;12.18;;
71383;SDS011;67558;52.166;5.004;2023-02-22T16:27:19;21.05;;;12.35;;
71383;SDS011;67558;52.166;5.004;2023-02-22T16:30:00;27.60;;;13.40;;
71383;SDS011;67558;52.166;5.004;2023-02-22T16:32:27;31.75;;;13.32;;
71383;SDS011;67558;52.166;5.004;2023-02-22T16:34:52;26.58;;;13.90;;
71383;SDS011;67558;52.166;5.004;2023-02-22T16:37:18;25.98;;;14.50;;
71383;SDS011;67558;52.166;5.004;2023-02-22T16:39:48;26.67;;;13.88;;
71383;SDS011;67558;52.166;5.004;2023-02-22T16:42:16;24.10;;;12.73;;
71383;SDS011;67558;52.166;5.004;2023-02-22T16:44:48;25.38;;;13.73;;
71383;SDS011;67558;52.166;5.004;2023-02-22T16:47:15;22.67;;;13.40;;
71383;SDS011;67558;52.166;5.004;2023-02-22T16:49:40;28.30;;;14.40;;
71383;SDS011;67558;52.166;5.004;2023-02-22T16:52:06;30.42;;;16.10;;
71383;SDS011;67558;52.166;5.004;2023-02-22T16:54:33;33.58;;;16.25;;
71383;SDS011;67558;52.166;5.004;2023-02-22T16:57:14;29.63;;;15.95;;
71383;SDS011;67558;52.166;5.004;2023-02-22T16:59:43;30.58;;;15.00;;
71383;SDS011;67558;52.166;5.004;2023-02-22T17:02:12;28.45;;;15.85;;
71383;SDS011;67558;52.166;5.004;2023-02-22T17:04:39;28.23;;;16.48;;
71383;SDS011;67558;52.166;5.004;2023-02-22T17:07:05;34.65;;;15.57;;
71383;SDS011;67558;52.166;5.004;2023-02-22T17:09:33;33.17;;;17.27;;
71383;SDS011;67558;52.166;5.004;2023-02-22T17:11:59;32.55;;;17.45;;
71383;SDS011;67558;52.166;5.004;2023-02-22T17:14:26;28.70;;;15.80;;
71383;SDS011;67558;52.166;5.004;2023-02-22T17:16:55;30.58;;;16.70;;
71383;SDS011;67558;52.166;5.004;2023-02-22T17:19:21;33.22;;;16.65;;
71383;SDS011;67558;52.166;5.004;2023-02-22T17:21:48;41.75;;;16.67;;
71383;SDS011;67558;52.166;5.004;2023-02-22T17:24:18;36.10;;;18.15;;
71383;SDS011;67558;52.166;5.004;2023-02-22T17:26:47;28.95;;;15.30;;
71383;SDS011;67558;52.166;5.004;2023-02-22T17:29:12;36.33;;;16.60;;